sensor_id;sensor_type;location;lat;lon;timestamp;temperature;humidity
11894;DHT22;6006;49.696;8.662;2022-12-18T00:00:58;-9.60;99.90
11894;DHT22;6006;49.696;8.662;2022-12-18T00:03:25;-9.60;99.90
11894;DHT22;6006;49.696;8.662;2022-12-18T00:05:53;-9.50;99.90
11894;DHT22;6006;49.696;8.662;2022-12-18T00:08:21;-9.50;99.90
11894;DHT22;6006;49.696;8.662;2022-12-18T00:10:48;-9.50;99.90
11894;DHT22;6006;49.696;8.662;2022-12-18T00:13:16;-9.50;99.90
11894;DHT22;6006;49.696;8.662;2022-12-18T00:15:43;-9.50;99.90
11894;DHT22;6006;49.696;8.662;2022-12-18T00:18:10;-9.40;99.90
11894;DHT22;6006;49.696;8.662;2022-12-18T00:20:38;-9.40;99.90
11894;DHT22;6006;49.696;8.662;2022-12-18T00:23:07;-9.30;99.90
11894;DHT22;6006;49.696;8.662;2022-12-18T00:25:35;-9.30;99.90
11894;DHT22;6006;49.696;8.662;2022-12-18T00:28:02;-9.30;99.90
11894;DHT22;6006;49.696;8.662;2022-12-18T00:30:29;-9.30;99.90
11894;DHT22;6006;49.696;8.662;2022-12-18T00:32:57;-9.20;99.90
11894;DHT22;6006;49.696;8.662;2022-12-18T00:35:24;-9.20;99.90
11894;DHT22;6006;49.696;8.662;2022-12-18T00:37:51;-9.20;99.90
11894;DHT22;6006;49.696;8.662;2022-12-18T00:40:20;-9.20;99.90
11894;DHT22;6006;49.696;8.662;2022-12-18T00:42:47;-9.20;99.90
11894;DHT22;6006;49.696;8.662;2022-12-18T00:45:27;-9.20;99.90
11894;DHT22;6006;49.696;8.662;2022-12-18T00:47:54;-9.20;99.90
11894;DHT22;6006;49.696;8.662;2022-12-18T00:50:24;-9.30;99.90
11894;DHT22;6006;49.696;8.662;2022-12-18T00:52:51;-9.30;99.90
11894;DHT22;6006;49.696;8.662;2022-12-18T00:55:20;-9.30;99.90
11894;DHT22;6006;49.696;8.662;2022-12-18T00:57:47;-9.30;99.90
11894;DHT22;6006;49.696;8.662;2022-12-18T01:00:15;-9.40;99.90
11894;DHT22;6006;49.696;8.662;2022-12-18T01:02:42;-9.40;99.90
11894;DHT22;6006;49.696;8.662;2022-12-18T01:05:09;-9.50;99.90
11894;DHT22;6006;49.696;8.662;2022-12-18T01:07:36;-9.50;99.90
11894;DHT22;6006;49.696;8.662;2022-12-18T01:10:05;-9.60;99.90
11894;DHT22;6006;49.696;8.662;2022-12-18T01:12:34;-9.60;99.90
11894;DHT22;6006;49.696;8.662;2022-12-18T01:15:01;-9.70;99.90
11894;DHT22;6006;49.696;8.662;2022-12-18T01:17:28;-9.70;99.90
11894;DHT22;6006;49.696;8.662;2022-12-18T01:19:55;-9.90;99.90
11894;DHT22;6006;49.696;8.662;2022-12-18T01:22:22;-9.90;99.90
11894;DHT22;6006;49.696;8.662;2022-12-18T01:24:49;-10.10;99.90
11894;DHT22;6006;49.696;8.662;2022-12-18T01:27:16;-10.20;99.90
11894;DHT22;6006;49.696;8.662;2022-12-18T01:29:44;-10.20;99.90
11894;DHT22;6006;49.696;8.662;2022-12-18T01:32:11;-10.30;99.90
11894;DHT22;6006;49.696;8.662;2022-12-18T01:34:38;-10.40;99.90
11894;DHT22;6006;49.696;8.662;2022-12-18T01:37:05;-10.50;96.90
11894;DHT22;6006;49.696;8.662;2022-12-18T01:39:33;-10.50;98.90
11894;DHT22;6006;49.696;8.662;2022-12-18T01:42:00;-10.50;99.90
11894;DHT22;6006;49.696;8.662;2022-12-18T01:45:05;-10.60;90.20
11894;DHT22;6006;49.696;8.662;2022-12-18T01:47:38;-10.70;90.90
11894;DHT22;6006;49.696;8.662;2022-12-18T01:50:08;-10.70;97.00
11894;DHT22;6006;49.696;8.662;2022-12-18T01:52:36;-10.70;97.50
11894;DHT22;6006;49.696;8.662;2022-12-18T01:55:05;-10.70;99.90
11894;DHT22;6006;49.696;8.662;2022-12-18T01:57:33;-10.70;99.90
11894;DHT22;6006;49.696;8.662;2022-12-18T02:00:04;-10.70;99.90
11894;DHT22;6006;49.696;8.662;2022-12-18T02:02:32;-10.80;90.90
11894;DHT22;6006;49.696;8.662;2022-12-18T02:05:00;-10.80;91.70
11894;DHT22;6006;49.696;8.662;2022-12-18T02:07:35;-10.80;95.30
11894;DHT22;6006;49.696;8.662;2022-12-18T02:10:10;-10.80;95.90
11894;DHT22;6006;49.696;8.662;2022-12-18T02:12:42;-10.80;94.80
11894;DHT22;6006;49.696;8.662;2022-12-18T02:15:15;-10.90;76.90
11894;DHT22;6006;49.696;8.662;2022-12-18T02:17:52;-10.80;77.10
11894;DHT22;6006;49.696;8.662;2022-12-18T02:20:23;-10.90;77.50
11894;DHT22;6006;49.696;8.662;2022-12-18T02:23:04;-10.90;75.20
11894;DHT22;6006;49.696;8.662;2022-12-18T02:28:15;-10.90;81.40
11894;DHT22;6006;49.696;8.662;2022-12-18T02:30:46;-10.90;77.20
11894;DHT22;6006;49.696;8.662;2022-12-18T02:33:14;-11.00;65.90
11894;DHT22;6006;49.696;8.662;2022-12-18T02:35:42;-11.00;59.30
11894;DHT22;6006;49.696;8.662;2022-12-18T02:38:12;-11.00;56.50
11894;DHT22;6006;49.696;8.662;2022-12-18T02:40:40;-11.00;53.90
11894;DHT22;6006;49.696;8.662;2022-12-18T02:43:10;-11.00;56.70
11894;DHT22;6006;49.696;8.662;2022-12-18T02:45:48;-10.90;66.00
11894;DHT22;6006;49.696;8.662;2022-12-18T02:48:17;-10.50;68.90
11894;DHT22;6006;49.696;8.662;2022-12-18T02:50:50;-10.90;69.50
11894;DHT22;6006;49.696;8.662;2022-12-18T02:53:24;-10.90;76.40
11894;DHT22;6006;49.696;8.662;2022-12-18T02:56:00;-10.80;93.30
11894;DHT22;6006;49.696;8.662;2022-12-18T02:58:34;-10.90;88.60
11894;DHT22;6006;49.696;8.662;2022-12-18T03:01:09;-10.90;90.90
11894;DHT22;6006;49.696;8.662;2022-12-18T03:03:41;-10.90;90.30
11894;DHT22;6006;49.696;8.662;2022-12-18T03:06:12;-10.90;83.70
11894;DHT22;6006;49.696;8.662;2022-12-18T03:08:43;-10.90;85.00
11894;DHT22;6006;49.696;8.662;2022-12-18T03:11:13;-10.90;90.50
11894;DHT22;6006;49.696;8.662;2022-12-18T03:13:44;-11.00;85.90
11894;DHT22;6006;49.696;8.662;2022-12-18T03:16:17;-11.00;67.10
11894;DHT22;6006;49.696;8.662;2022-12-18T03:18:47;-11.10;60.80
11894;DHT22;6006;49.696;8.662;2022-12-18T03:21:19;-11.10;58.50
11894;DHT22;6006;49.696;8.662;2022-12-18T03:23:49;-11.10;58.70
11894;DHT22;6006;49.696;8.662;2022-12-18T03:26:20;-11.10;50.80
11894;DHT22;6006;49.696;8.662;2022-12-18T03:28:51;-11.10;53.40
11894;DHT22;6006;49.696;8.662;2022-12-18T03:31:22;-11.10;62.20
11894;DHT22;6006;49.696;8.662;2022-12-18T03:33:52;-11.10;53.00
11894;DHT22;6006;49.696;8.662;2022-12-18T03:36:19;-11.20;49.30
11894;DHT22;6006;49.696;8.662;2022-12-18T03:38:47;-11.10;52.50
11894;DHT22;6006;49.696;8.662;2022-12-18T03:41:18;-11.20;41.60
11894;DHT22;6006;49.696;8.662;2022-12-18T03:43:51;-11.10;54.90
11894;DHT22;6006;49.696;8.662;2022-12-18T03:46:26;-11.10;69.00
11894;DHT22;6006;49.696;8.662;2022-12-18T03:49:00;-11.00;88.70
11894;DHT22;6006;49.696;8.662;2022-12-18T03:51:36;-11.00;70.10
11894;DHT22;6006;49.696;8.662;2022-12-18T03:54:06;-11.10;56.50
11894;DHT22;6006;49.696;8.662;2022-12-18T03:56:38;-11.10;51.40
11894;DHT22;6006;49.696;8.662;2022-12-18T03:59:07;-11.10;57.70
11894;DHT22;6006;49.696;8.662;2022-12-18T04:01:40;-11.10;60.40
11894;DHT22;6006;49.696;8.662;2022-12-18T04:04:08;-11.00;65.70
11894;DHT22;6006;49.696;8.662;2022-12-18T04:06:37;-11.10;57.00
11894;DHT22;6006;49.696;8.662;2022-12-18T04:09:05;-11.10;60.80
11894;DHT22;6006;49.696;8.662;2022-12-18T04:11:32;-11.10;61.80
11894;DHT22;6006;49.696;8.662;2022-12-18T04:13:59;-11.10;71.10
11894;DHT22;6006;49.696;8.662;2022-12-18T04:16:27;-11.10;72.00
11894;DHT22;6006;49.696;8.662;2022-12-18T04:18:55;-11.10;67.70
11894;DHT22;6006;49.696;8.662;2022-12-18T04:21:22;-11.20;58.70
11894;DHT22;6006;49.696;8.662;2022-12-18T04:23:49;-11.20;61.10
11894;DHT22;6006;49.696;8.662;2022-12-18T04:26:16;-11.20;65.10
11894;DHT22;6006;49.696;8.662;2022-12-18T04:28:43;-11.20;67.70
11894;DHT22;6006;49.696;8.662;2022-12-18T04:31:10;-11.30;57.70
11894;DHT22;6006;49.696;8.662;2022-12-18T04:33:38;-11.30;50.70
11894;DHT22;6006;49.696;8.662;2022-12-18T04:36:07;-11.30;50.40
11894;DHT22;6006;49.696;8.662;2022-12-18T04:38:34;-11.30;55.80
11894;DHT22;6006;49.696;8.662;2022-12-18T04:41:01;-11.40;56.60
11894;DHT22;6006;49.696;8.662;2022-12-18T04:43:28;-11.40;61.80
11894;DHT22;6006;49.696;8.662;2022-12-18T04:46:02;-11.40;51.60
11894;DHT22;6006;49.696;8.662;2022-12-18T04:48:29;-11.40;56.80
11894;DHT22;6006;49.696;8.662;2022-12-18T04:50:56;-11.40;61.20
11894;DHT22;6006;49.696;8.662;2022-12-18T04:53:24;-11.40;53.20
11894;DHT22;6006;49.696;8.662;2022-12-18T04:56:01;-11.50;39.40
11894;DHT22;6006;49.696;8.662;2022-12-18T04:58:28;-11.50;36.00
11894;DHT22;6006;49.696;8.662;2022-12-18T05:00:55;-11.50;47.40
11894;DHT22;6006;49.696;8.662;2022-12-18T05:03:22;-11.50;49.80
11894;DHT22;6006;49.696;8.662;2022-12-18T05:05:49;-11.50;33.00
11894;DHT22;6006;49.696;8.662;2022-12-18T05:08:17;-11.60;22.20
11894;DHT22;6006;49.696;8.662;2022-12-18T05:10:46;-11.60;21.50
11894;DHT22;6006;49.696;8.662;2022-12-18T05:13:13;-11.50;28.20
11894;DHT22;6006;49.696;8.662;2022-12-18T05:15:40;-11.60;34.30
11894;DHT22;6006;49.696;8.662;2022-12-18T05:18:08;-11.60;32.40
11894;DHT22;6006;49.696;8.662;2022-12-18T05:20:35;-11.60;21.00
11894;DHT22;6006;49.696;8.662;2022-12-18T05:23:02;-11.60;16.00
11894;DHT22;6006;49.696;8.662;2022-12-18T05:25:29;-11.60;18.30
11894;DHT22;6006;49.696;8.662;2022-12-18T05:27:58;-11.60;21.60
11894;DHT22;6006;49.696;8.662;2022-12-18T05:30:25;-11.70;14.00
11894;DHT22;6006;49.696;8.662;2022-12-18T05:32:52;-11.70;19.40
11894;DHT22;6006;49.696;8.662;2022-12-18T05:35:19;-11.70;19.60
11894;DHT22;6006;49.696;8.662;2022-12-18T05:37:46;-11.70;25.90
11894;DHT22;6006;49.696;8.662;2022-12-18T05:40:13;-11.60;34.10
11894;DHT22;6006;49.696;8.662;2022-12-18T05:42:40;-11.60;38.90
11894;DHT22;6006;49.696;8.662;2022-12-18T05:45:09;-11.60;40.20
11894;DHT22;6006;49.696;8.662;2022-12-18T05:47:36;-11.60;39.80
11894;DHT22;6006;49.696;8.662;2022-12-18T05:50:03;-11.60;33.00
11894;DHT22;6006;49.696;8.662;2022-12-18T05:52:31;-11.60;34.20
11894;DHT22;6006;49.696;8.662;2022-12-18T05:54:57;-11.50;46.00
11894;DHT22;6006;49.696;8.662;2022-12-18T05:57:25;-11.50;61.90
11894;DHT22;6006;49.696;8.662;2022-12-18T05:59:52;-11.40;70.40
11894;DHT22;6006;49.696;8.662;2022-12-18T06:02:20;-11.40;71.60
11894;DHT22;6006;49.696;8.662;2022-12-18T06:04:48;-11.40;71.10
11894;DHT22;6006;49.696;8.662;2022-12-18T06:07:15;-10.90;67.50
11894;DHT22;6006;49.696;8.662;2022-12-18T06:09:41;-11.50;61.90
11894;DHT22;6006;49.696;8.662;2022-12-18T06:12:09;-11.50;49.90
11894;DHT22;6006;49.696;8.662;2022-12-18T06:14:36;-11.40;55.90
11894;DHT22;6006;49.696;8.662;2022-12-18T06:17:03;-11.50;32.80
11894;DHT22;6006;49.696;8.662;2022-12-18T06:19:31;-11.60;41.80
11894;DHT22;6006;49.696;8.662;2022-12-18T06:21:58;-11.50;54.60
11894;DHT22;6006;49.696;8.662;2022-12-18T06:24:29;-11.50;67.40
11894;DHT22;6006;49.696;8.662;2022-12-18T06:26:59;-11.50;71.40
11894;DHT22;6006;49.696;8.662;2022-12-18T06:29:28;-11.50;72.10
11894;DHT22;6006;49.696;8.662;2022-12-18T06:31:55;-11.50;70.90
11894;DHT22;6006;49.696;8.662;2022-12-18T06:34:22;-11.50;75.10
11894;DHT22;6006;49.696;8.662;2022-12-18T06:36:52;-11.50;75.90
11894;DHT22;6006;49.696;8.662;2022-12-18T06:39:18;-11.50;84.80
11894;DHT22;6006;49.696;8.662;2022-12-18T06:41:45;-11.50;81.80
11894;DHT22;6006;49.696;8.662;2022-12-18T06:44:12;-11.50;74.70
11894;DHT22;6006;49.696;8.662;2022-12-18T06:46:39;-11.50;58.80
11894;DHT22;6006;49.696;8.662;2022-12-18T06:49:06;-11.50;59.50
11894;DHT22;6006;49.696;8.662;2022-12-18T06:51:34;-11.50;64.40
11894;DHT22;6006;49.696;8.662;2022-12-18T06:54:03;-11.50;72.30
11894;DHT22;6006;49.696;8.662;2022-12-18T06:56:30;-11.50;74.50
11894;DHT22;6006;49.696;8.662;2022-12-18T06:58:57;-11.50;75.60
11894;DHT22;6006;49.696;8.662;2022-12-18T07:01:24;-11.50;75.60
11894;DHT22;6006;49.696;8.662;2022-12-18T07:03:52;-11.50;76.80
11894;DHT22;6006;49.696;8.662;2022-12-18T07:06:21;-11.40;83.00
11894;DHT22;6006;49.696;8.662;2022-12-18T07:08:49;-11.40;87.50
11894;DHT22;6006;49.696;8.662;2022-12-18T07:11:18;-11.40;95.50
11894;DHT22;6006;49.696;8.662;2022-12-18T07:13:45;-11.30;99.90
11894;DHT22;6006;49.696;8.662;2022-12-18T07:16:14;-11.30;98.80
11894;DHT22;6006;49.696;8.662;2022-12-18T07:18:41;-11.30;97.90
11894;DHT22;6006;49.696;8.662;2022-12-18T07:21:10;-11.30;94.60
11894;DHT22;6006;49.696;8.662;2022-12-18T07:23:37;-11.20;93.30
11894;DHT22;6006;49.696;8.662;2022-12-18T07:26:06;-11.20;92.20
11894;DHT22;6006;49.696;8.662;2022-12-18T07:28:36;-11.20;92.30
11894;DHT22;6006;49.696;8.662;2022-12-18T07:31:04;-11.20;93.60
11894;DHT22;6006;49.696;8.662;2022-12-18T07:33:32;-11.10;95.60
11894;DHT22;6006;49.696;8.662;2022-12-18T07:35:59;-10.70;99.90
11894;DHT22;6006;49.696;8.662;2022-12-18T07:38:26;-9.90;99.90
11894;DHT22;6006;49.696;8.662;2022-12-18T07:40:52;-9.70;99.90
11894;DHT22;6006;49.696;8.662;2022-12-18T07:43:19;-9.90;99.90
11894;DHT22;6006;49.696;8.662;2022-12-18T07:45:49;-10.10;99.90
11894;DHT22;6006;49.696;8.662;2022-12-18T07:48:17;-10.30;47.10
11894;DHT22;6006;49.696;8.662;2022-12-18T07:50:44;-10.40;14.80
11894;DHT22;6006;49.696;8.662;2022-12-18T07:53:11;-10.50;11.70
11894;DHT22;6006;49.696;8.662;2022-12-18T07:55:38;-10.60;10.80
11894;DHT22;6006;49.696;8.662;2022-12-18T07:58:05;-10.60;18.70
11894;DHT22;6006;49.696;8.662;2022-12-18T08:00:32;-10.60;18.60
11894;DHT22;6006;49.696;8.662;2022-12-18T08:03:01;-10.80;1.00
11894;DHT22;6006;49.696;8.662;2022-12-18T08:05:28;-10.80;1.00
11894;DHT22;6006;49.696;8.662;2022-12-18T08:07:55;-10.80;25.70
11894;DHT22;6006;49.696;8.662;2022-12-18T08:10:22;-10.70;51.40
11894;DHT22;6006;49.696;8.662;2022-12-18T08:12:49;-10.60;68.00
11894;DHT22;6006;49.696;8.662;2022-12-18T08:15:17;-10.60;90.20
11894;DHT22;6006;49.696;8.662;2022-12-18T08:17:44;-10.50;92.50
11894;DHT22;6006;49.696;8.662;2022-12-18T08:20:12;-10.50;71.00
11894;DHT22;6006;49.696;8.662;2022-12-18T08:22:40;-10.50;53.60
11894;DHT22;6006;49.696;8.662;2022-12-18T08:25:08;-10.50;59.60
11894;DHT22;6006;49.696;8.662;2022-12-18T08:27:35;-10.40;62.60
11894;DHT22;6006;49.696;8.662;2022-12-18T08:30:03;-10.30;48.50
11894;DHT22;6006;49.696;8.662;2022-12-18T08:32:31;-10.20;53.80
11894;DHT22;6006;49.696;8.662;2022-12-18T08:34:58;-10.20;43.40
11894;DHT22;6006;49.696;8.662;2022-12-18T08:37:27;-10.20;38.30
11894;DHT22;6006;49.696;8.662;2022-12-18T08:39:54;-10.20;25.80
11894;DHT22;6006;49.696;8.662;2022-12-18T08:42:21;-10.10;27.60
11894;DHT22;6006;49.696;8.662;2022-12-18T08:45:06;-10.10;18.30
11894;DHT22;6006;49.696;8.662;2022-12-18T08:47:33;-10.10;8.00
11894;DHT22;6006;49.696;8.662;2022-12-18T08:50:00;-10.20;1.00
11894;DHT22;6006;49.696;8.662;2022-12-18T08:52:30;-10.10;1.00
11894;DHT22;6006;49.696;8.662;2022-12-18T08:54:58;-10.10;1.00
11894;DHT22;6006;49.696;8.662;2022-12-18T08:57:24;-10.10;1.00
11894;DHT22;6006;49.696;8.662;2022-12-18T08:59:51;-10.00;6.90
11894;DHT22;6006;49.696;8.662;2022-12-18T09:02:18;-10.00;2.30
11894;DHT22;6006;49.696;8.662;2022-12-18T09:04:46;-9.90;15.70
11894;DHT22;6006;49.696;8.662;2022-12-18T09:07:14;-9.80;31.60
11894;DHT22;6006;49.696;8.662;2022-12-18T09:09:42;-9.60;44.40
11894;DHT22;6006;49.696;8.662;2022-12-18T09:12:09;-9.50;49.90
11894;DHT22;6006;49.696;8.662;2022-12-18T09:14:36;-9.50;48.80
11894;DHT22;6006;49.696;8.662;2022-12-18T09:17:03;-9.50;53.30
11894;DHT22;6006;49.696;8.662;2022-12-18T09:19:30;-9.40;62.90
11894;DHT22;6006;49.696;8.662;2022-12-18T09:21:57;-9.30;72.30
11894;DHT22;6006;49.696;8.662;2022-12-18T09:24:24;-9.20;90.90
11894;DHT22;6006;49.696;8.662;2022-12-18T09:26:54;-9.10;94.70
11894;DHT22;6006;49.696;8.662;2022-12-18T09:29:21;-8.90;99.90
11894;DHT22;6006;49.696;8.662;2022-12-18T09:31:49;-8.80;99.90
11894;DHT22;6006;49.696;8.662;2022-12-18T09:34:16;-8.60;99.90
11894;DHT22;6006;49.696;8.662;2022-12-18T09:36:43;-8.40;99.90
11894;DHT22;6006;49.696;8.662;2022-12-18T09:39:10;-8.10;99.90
11894;DHT22;6006;49.696;8.662;2022-12-18T09:41:45;-8.00;99.90
11894;DHT22;6006;49.696;8.662;2022-12-18T09:44:24;-7.90;99.90
11894;DHT22;6006;49.696;8.662;2022-12-18T09:47:00;-7.80;99.90
11894;DHT22;6006;49.696;8.662;2022-12-18T09:49:31;-7.70;99.90
11894;DHT22;6006;49.696;8.662;2022-12-18T09:52:04;-7.70;99.90
11894;DHT22;6006;49.696;8.662;2022-12-18T09:54:36;-7.60;99.90
11894;DHT22;6006;49.696;8.662;2022-12-18T09:57:14;-7.40;99.90
11894;DHT22;6006;49.696;8.662;2022-12-18T09:59:47;-7.20;99.90
11894;DHT22;6006;49.696;8.662;2022-12-18T10:02:18;-7.00;99.90
11894;DHT22;6006;49.696;8.662;2022-12-18T10:04:53;-6.90;99.90
11894;DHT22;6006;49.696;8.662;2022-12-18T10:07:26;-6.80;99.90
11894;DHT22;6006;49.696;8.662;2022-12-18T10:10:01;-6.60;99.90
11894;DHT22;6006;49.696;8.662;2022-12-18T10:12:34;-6.40;99.90
11894;DHT22;6006;49.696;8.662;2022-12-18T10:15:07;-6.30;99.90
11894;DHT22;6006;49.696;8.662;2022-12-18T10:17:42;-6.20;99.90
11894;DHT22;6006;49.696;8.662;2022-12-18T10:20:13;-6.10;99.90
11894;DHT22;6006;49.696;8.662;2022-12-18T10:22:50;-6.10;99.90
11894;DHT22;6006;49.696;8.662;2022-12-18T10:25:22;-5.90;99.90
11894;DHT22;6006;49.696;8.662;2022-12-18T10:27:53;-5.90;99.90
11894;DHT22;6006;49.696;8.662;2022-12-18T10:30:24;-5.80;99.90
11894;DHT22;6006;49.696;8.662;2022-12-18T10:32:52;-5.60;99.90
11894;DHT22;6006;49.696;8.662;2022-12-18T10:35:21;-5.50;99.90
11894;DHT22;6006;49.696;8.662;2022-12-18T10:38:03;-5.30;99.90
11894;DHT22;6006;49.696;8.662;2022-12-18T10:40:31;-5.20;99.90
11894;DHT22;6006;49.696;8.662;2022-12-18T10:43:05;-5.00;99.90
11894;DHT22;6006;49.696;8.662;2022-12-18T10:45:34;-4.90;99.90
11894;DHT22;6006;49.696;8.662;2022-12-18T10:48:01;-4.70;99.90
11894;DHT22;6006;49.696;8.662;2022-12-18T10:50:30;-4.60;99.90
11894;DHT22;6006;49.696;8.662;2022-12-18T10:52:59;-4.50;99.90
11894;DHT22;6006;49.696;8.662;2022-12-18T10:55:31;-4.40;99.90
11894;DHT22;6006;49.696;8.662;2022-12-18T10:58:16;-4.30;99.90
11894;DHT22;6006;49.696;8.662;2022-12-18T11:01:02;-4.30;99.90
11894;DHT22;6006;49.696;8.662;2022-12-18T11:03:33;-4.20;99.90
11894;DHT22;6006;49.696;8.662;2022-12-18T11:06:04;-4.10;99.90
11894;DHT22;6006;49.696;8.662;2022-12-18T11:08:31;-4.20;99.90
11894;DHT22;6006;49.696;8.662;2022-12-18T11:10:58;-4.10;99.90
11894;DHT22;6006;49.696;8.662;2022-12-18T11:13:27;-4.10;99.90
11894;DHT22;6006;49.696;8.662;2022-12-18T11:15:56;-4.20;99.90
11894;DHT22;6006;49.696;8.662;2022-12-18T11:18:27;-4.30;99.90
11894;DHT22;6006;49.696;8.662;2022-12-18T11:20:56;-4.30;99.90
11894;DHT22;6006;49.696;8.662;2022-12-18T11:23:24;-4.30;99.90
11894;DHT22;6006;49.696;8.662;2022-12-18T11:25:54;-4.30;99.90
11894;DHT22;6006;49.696;8.662;2022-12-18T11:28:28;-4.20;99.90
11894;DHT22;6006;49.696;8.662;2022-12-18T11:31:22;-4.20;99.90
11894;DHT22;6006;49.696;8.662;2022-12-18T11:33:54;-4.20;99.90
11894;DHT22;6006;49.696;8.662;2022-12-18T11:36:23;-4.20;99.90
11894;DHT22;6006;49.696;8.662;2022-12-18T11:38:54;-4.20;99.90
11894;DHT22;6006;49.696;8.662;2022-12-18T11:41:25;-4.20;99.90
11894;DHT22;6006;49.696;8.662;2022-12-18T11:44:19;-4.30;99.90
11894;DHT22;6006;49.696;8.662;2022-12-18T11:46:55;-4.20;99.90
11894;DHT22;6006;49.696;8.662;2022-12-18T11:49:25;-4.10;99.90
11894;DHT22;6006;49.696;8.662;2022-12-18T11:51:57;-3.90;99.90
11894;DHT22;6006;49.696;8.662;2022-12-18T11:54:25;-3.90;80.70
11894;DHT22;6006;49.696;8.662;2022-12-18T11:56:56;-3.80;99.90
11894;DHT22;6006;49.696;8.662;2022-12-18T11:59:31;-3.80;80.80
11894;DHT22;6006;49.696;8.662;2022-12-18T12:02:14;-3.80;90.00
11894;DHT22;6006;49.696;8.662;2022-12-18T12:04:50;-3.60;97.20
11894;DHT22;6006;49.696;8.662;2022-12-18T12:07:32;-3.70;16.80
11894;DHT22;6006;49.696;8.662;2022-12-18T12:10:11;-3.80;29.40
11894;DHT22;6006;49.696;8.662;2022-12-18T12:12:53;-3.90;99.90
11894;DHT22;6006;49.696;8.662;2022-12-18T12:15:29;-3.90;99.90
11894;DHT22;6006;49.696;8.662;2022-12-18T12:18:08;-3.90;65.50
11894;DHT22;6006;49.696;8.662;2022-12-18T12:20:47;-3.80;95.00
11894;DHT22;6006;49.696;8.662;2022-12-18T12:23:26;-3.90;37.10
11894;DHT22;6006;49.696;8.662;2022-12-18T12:26:00;-3.90;31.30
11894;DHT22;6006;49.696;8.662;2022-12-18T12:28:48;-3.90;43.70
11894;DHT22;6006;49.696;8.662;2022-12-18T12:31:23;-3.70;7.60
11894;DHT22;6006;49.696;8.662;2022-12-18T12:33:59;-3.70;1.00
11894;DHT22;6006;49.696;8.662;2022-12-18T12:36:34;-3.70;28.30
11894;DHT22;6006;49.696;8.662;2022-12-18T12:39:08;-3.60;3.60
11894;DHT22;6006;49.696;8.662;2022-12-18T12:41:39;-3.70;1.00
11894;DHT22;6006;49.696;8.662;2022-12-18T12:44:27;-3.80;7.70
11894;DHT22;6006;49.696;8.662;2022-12-18T12:46:58;-3.90;63.80
11894;DHT22;6006;49.696;8.662;2022-12-18T12:49:31;-3.80;93.40
11894;DHT22;6006;49.696;8.662;2022-12-18T12:52:03;-3.60;69.10
11894;DHT22;6006;49.696;8.662;2022-12-18T12:54:32;-3.70;1.00
11894;DHT22;6006;49.696;8.662;2022-12-18T12:57:07;-3.70;58.20
11894;DHT22;6006;49.696;8.662;2022-12-18T12:59:41;-3.80;64.80
11894;DHT22;6006;49.696;8.662;2022-12-18T13:02:20;-4.00;56.30
11894;DHT22;6006;49.696;8.662;2022-12-18T13:04:57;-4.00;94.40
11894;DHT22;6006;49.696;8.662;2022-12-18T13:07:28;-3.90;99.90
11894;DHT22;6006;49.696;8.662;2022-12-18T13:10:22;-3.90;27.10
11894;DHT22;6006;49.696;8.662;2022-12-18T13:12:54;-3.70;92.10
11894;DHT22;6006;49.696;8.662;2022-12-18T13:15:27;-3.60;47.50
11894;DHT22;6006;49.696;8.662;2022-12-18T13:18:14;-3.40;1.00
11894;DHT22;6006;49.696;8.662;2022-12-18T13:20:45;-3.30;1.00
11894;DHT22;6006;49.696;8.662;2022-12-18T13:23:29;-3.00;74.30
11894;DHT22;6006;49.696;8.662;2022-12-18T13:25:57;-2.90;1.00
11894;DHT22;6006;49.696;8.662;2022-12-18T13:28:51;-2.70;1.00
11894;DHT22;6006;49.696;8.662;2022-12-18T13:34:26;-2.70;1.00
11894;DHT22;6006;49.696;8.662;2022-12-18T13:37:33;-2.90;1.00
11894;DHT22;6006;49.696;8.662;2022-12-18T13:39:44;-3.10;1.00
11894;DHT22;6006;49.696;8.662;2022-12-18T13:42:39;-3.20;17.80
11894;DHT22;6006;49.696;8.662;2022-12-18T13:45:39;-3.40;99.90
11894;DHT22;6006;49.696;8.662;2022-12-18T13:48:19;-3.50;99.90
11894;DHT22;6006;49.696;8.662;2022-12-18T13:50:49;-3.50;99.90
11894;DHT22;6006;49.696;8.662;2022-12-18T13:53:22;-3.40;99.90
11894;DHT22;6006;49.696;8.662;2022-12-18T13:55:50;-3.40;99.90
11894;DHT22;6006;49.696;8.662;2022-12-18T13:58:17;-3.40;99.90
11894;DHT22;6006;49.696;8.662;2022-12-18T14:00:44;-3.40;99.90
11894;DHT22;6006;49.696;8.662;2022-12-18T14:03:22;-3.70;99.90
11894;DHT22;6006;49.696;8.662;2022-12-18T14:05:56;-3.70;99.90
11894;DHT22;6006;49.696;8.662;2022-12-18T14:08:34;-3.70;99.90
11894;DHT22;6006;49.696;8.662;2022-12-18T14:11:04;-3.80;99.90
11894;DHT22;6006;49.696;8.662;2022-12-18T14:13:33;-3.80;99.90
11894;DHT22;6006;49.696;8.662;2022-12-18T14:16:03;-3.80;99.90
11894;DHT22;6006;49.696;8.662;2022-12-18T14:18:38;-3.90;99.90
11894;DHT22;6006;49.696;8.662;2022-12-18T14:21:05;-4.00;99.90
11894;DHT22;6006;49.696;8.662;2022-12-18T14:23:38;-4.00;99.90
11894;DHT22;6006;49.696;8.662;2022-12-18T14:26:21;-4.10;99.90
11894;DHT22;6006;49.696;8.662;2022-12-18T14:28:48;-4.10;99.90
11894;DHT22;6006;49.696;8.662;2022-12-18T14:31:18;-4.10;99.90
11894;DHT22;6006;49.696;8.662;2022-12-18T14:33:46;-4.20;99.90
11894;DHT22;6006;49.696;8.662;2022-12-18T14:36:16;-4.20;99.90
11894;DHT22;6006;49.696;8.662;2022-12-18T14:38:49;-4.10;99.90
11894;DHT22;6006;49.696;8.662;2022-12-18T14:41:17;-4.00;99.90
11894;DHT22;6006;49.696;8.662;2022-12-18T14:43:46;-4.00;99.90
11894;DHT22;6006;49.696;8.662;2022-12-18T14:46:29;-3.90;99.90
11894;DHT22;6006;49.696;8.662;2022-12-18T14:48:58;-3.90;99.90
11894;DHT22;6006;49.696;8.662;2022-12-18T14:51:28;-3.90;99.90
11894;DHT22;6006;49.696;8.662;2022-12-18T14:53:58;-3.90;99.90
11894;DHT22;6006;49.696;8.662;2022-12-18T14:56:28;-4.00;99.90
11894;DHT22;6006;49.696;8.662;2022-12-18T14:58:57;-4.10;99.90
11894;DHT22;6006;49.696;8.662;2022-12-18T15:01:27;-4.20;99.90
11894;DHT22;6006;49.696;8.662;2022-12-18T15:03:55;-4.20;99.90
11894;DHT22;6006;49.696;8.662;2022-12-18T15:06:32;-4.30;99.90
11894;DHT22;6006;49.696;8.662;2022-12-18T15:09:04;-4.30;99.90
11894;DHT22;6006;49.696;8.662;2022-12-18T15:11:44;-4.50;99.90
11894;DHT22;6006;49.696;8.662;2022-12-18T15:14:34;-4.60;99.90
11894;DHT22;6006;49.696;8.662;2022-12-18T15:17:04;-4.60;99.90
11894;DHT22;6006;49.696;8.662;2022-12-18T15:19:38;-4.70;99.90
11894;DHT22;6006;49.696;8.662;2022-12-18T15:22:18;-4.80;99.90
11894;DHT22;6006;49.696;8.662;2022-12-18T15:24:48;-4.80;99.90
11894;DHT22;6006;49.696;8.662;2022-12-18T15:27:28;-4.90;99.90
11894;DHT22;6006;49.696;8.662;2022-12-18T15:30:25;-5.00;99.90
11894;DHT22;6006;49.696;8.662;2022-12-18T15:32:55;-5.10;99.90
11894;DHT22;6006;49.696;8.662;2022-12-18T15:35:41;-5.10;99.90
11894;DHT22;6006;49.696;8.662;2022-12-18T15:38:08;-5.20;99.90
11894;DHT22;6006;49.696;8.662;2022-12-18T15:40:35;-5.20;99.90
11894;DHT22;6006;49.696;8.662;2022-12-18T15:43:04;-5.20;99.90
11894;DHT22;6006;49.696;8.662;2022-12-18T15:45:49;-5.20;99.90
11894;DHT22;6006;49.696;8.662;2022-12-18T15:48:21;-5.30;99.90
11894;DHT22;6006;49.696;8.662;2022-12-18T15:50:50;-5.20;99.90
11894;DHT22;6006;49.696;8.662;2022-12-18T15:53:18;-5.30;99.90
11894;DHT22;6006;49.696;8.662;2022-12-18T15:55:45;-5.40;99.90
11894;DHT22;6006;49.696;8.662;2022-12-18T15:58:30;-5.40;99.90
11894;DHT22;6006;49.696;8.662;2022-12-18T16:00:58;-5.50;99.90
11894;DHT22;6006;49.696;8.662;2022-12-18T16:03:26;-5.40;99.90
11894;DHT22;6006;49.696;8.662;2022-12-18T16:05:54;-5.40;99.90
11894;DHT22;6006;49.696;8.662;2022-12-18T16:08:21;-5.40;99.90